Pagrindinis puslapis
METAR-TAF:

METAR-TAF

Oro uostai :

Evenes, Norvegija

platuma: 68-31N, ilguma: 016-41E, Aukštis: 26 m

Dabartinis oras

Ataskaita buvo paskelbta 34 minutes, ne 13:20 UTC
Vėjas 7 kt iš Pietvakarių, svyruoja nuo Pietų ir Vakarų
Temperatūra 3°C
Drėgmė 38%
Slėgis 1021 hPa
Matomumas 10 km arba daugiau
nėra debesų žemiau 1500 m ir nėra kamuolinių lietaus debesų

METAR: ENEV 201320Z 23007KT 190V260 CAVOK 03/M10 Q1021 RMK WIND 1400FT VRB02KT

Laikas: 15:54 (13:54 UTC)

Prognozė

Ataskaita buvo paskelbta 2 valandos ir 54 minutes, ne 11:00 UTC
Prognozė galioja nuo 20 metu 12 UTC su 21 metu 12 UTC
Vėjas 9 kt iš Pietų/Pietryčių
Matomumas 10 km arba daugiau
nėra debesų žemiau 1500 m ir nėra kamuolinių lietaus debesų
Laikinai
nuo 20 metu 14 UTC su 20 metu 19 UTC
Vėjas 10 kt iš Šiaurės

TAF: ENEV 201100Z 2012/2112 15009KT CAVOK TEMPO 2014/2019 36010KT

Orai ataskaitas ir orų prognozės (METAR, TAF).

turimą stotys yra geltonos ir raudonos taškus žemėlapyje.

Perkelti pele per norėdami pamatyti stoties vardą.

Tada spustelėkite, norėdami matyti oro stebėjimo ir prognozės.

Norėdami pakeisti žemėlapį: spustelėkite ant žalios mygtukų su juodo kryžiaus žemyn,; žalią mygtuką su brūkšneliu, jei norite nutolinti; arba žalių rodyklių gretimoms žemėlapius.


METAR-TAF: